sensor_id;sensor_type;location;lat;lon;timestamp;temperature;humidity
5334;DHT22;2689;50.954;7.116;2023-02-28T00:01:25;1.50;97.50
5334;DHT22;2689;50.954;7.116;2023-02-28T00:03:52;1.50;97.50
5334;DHT22;2689;50.954;7.116;2023-02-28T00:06:20;1.50;97.40
5334;DHT22;2689;50.954;7.116;2023-02-28T00:08:52;1.50;97.40
5334;DHT22;2689;50.954;7.116;2023-02-28T00:11:21;1.50;97.30
5334;DHT22;2689;50.954;7.116;2023-02-28T00:13:49;1.50;97.30
5334;DHT22;2689;50.954;7.116;2023-02-28T00:16:22;1.50;97.50
5334;DHT22;2689;50.954;7.116;2023-02-28T00:18:53;1.50;97.40
5334;DHT22;2689;50.954;7.116;2023-02-28T00:21:21;1.50;97.50
5334;DHT22;2689;50.954;7.116;2023-02-28T00:23:53;1.50;97.50
5334;DHT22;2689;50.954;7.116;2023-02-28T00:26:24;1.50;97.40
5334;DHT22;2689;50.954;7.116;2023-02-28T00:28:53;1.50;97.50
5334;DHT22;2689;50.954;7.116;2023-02-28T00:31:21;1.50;97.60
5334;DHT22;2689;50.954;7.116;2023-02-28T00:33:51;1.40;97.70
5334;DHT22;2689;50.954;7.116;2023-02-28T00:36:33;1.30;97.90
5334;DHT22;2689;50.954;7.116;2023-02-28T00:39:17;1.30;98.00
5334;DHT22;2689;50.954;7.116;2023-02-28T00:41:50;1.30;98.10
5334;DHT22;2689;50.954;7.116;2023-02-28T00:44:21;1.30;98.10
5334;DHT22;2689;50.954;7.116;2023-02-28T00:46:51;1.40;98.20
5334;DHT22;2689;50.954;7.116;2023-02-28T00:49:24;1.30;98.00
5334;DHT22;2689;50.954;7.116;2023-02-28T00:52:07;1.30;98.00
5334;DHT22;2689;50.954;7.116;2023-02-28T00:54:55;1.30;98.00
5334;DHT22;2689;50.954;7.116;2023-02-28T00:57:49;1.30;97.90
5334;DHT22;2689;50.954;7.116;2023-02-28T01:00:28;1.30;98.00
5334;DHT22;2689;50.954;7.116;2023-02-28T01:03:08;1.30;98.10
5334;DHT22;2689;50.954;7.116;2023-02-28T01:05:50;1.30;98.10
5334;DHT22;2689;50.954;7.116;2023-02-28T01:08:24;1.30;98.10
5334;DHT22;2689;50.954;7.116;2023-02-28T01:52:18;0.80;99.70
5334;DHT22;2689;50.954;7.116;2023-02-28T01:55:15;0.80;99.80
5334;DHT22;2689;50.954;7.116;2023-02-28T01:58:31;0.80;99.80
5334;DHT22;2689;50.954;7.116;2023-02-28T02:01:20;0.70;99.90
5334;DHT22;2689;50.954;7.116;2023-02-28T02:04:12;0.70;99.90
5334;DHT22;2689;50.954;7.116;2023-02-28T02:06:53;0.60;99.90
5334;DHT22;2689;50.954;7.116;2023-02-28T02:12:31;0.60;99.90
5334;DHT22;2689;50.954;7.116;2023-02-28T02:15:11;0.60;99.90
5334;DHT22;2689;50.954;7.116;2023-02-28T02:17:49;0.50;99.90
5334;DHT22;2689;50.954;7.116;2023-02-28T02:20:47;0.50;99.90
5334;DHT22;2689;50.954;7.116;2023-02-28T02:23:56;0.50;99.90
5334;DHT22;2689;50.954;7.116;2023-02-28T02:26:49;0.50;99.90
5334;DHT22;2689;50.954;7.116;2023-02-28T02:29:47;0.50;99.90
5334;DHT22;2689;50.954;7.116;2023-02-28T02:32:33;0.50;99.90
5334;DHT22;2689;50.954;7.116;2023-02-28T02:35:15;0.50;99.90
5334;DHT22;2689;50.954;7.116;2023-02-28T02:37:50;0.50;99.90
5334;DHT22;2689;50.954;7.116;2023-02-28T02:40:20;0.60;99.90
5334;DHT22;2689;50.954;7.116;2023-02-28T02:42:54;0.50;99.90
5334;DHT22;2689;50.954;7.116;2023-02-28T02:45:27;0.50;99.90
5334;DHT22;2689;50.954;7.116;2023-02-28T02:48:03;0.60;99.80
5334;DHT22;2689;50.954;7.116;2023-02-28T02:50:36;0.60;99.40
5334;DHT22;2689;50.954;7.116;2023-02-28T02:53:06;0.60;99.00
5334;DHT22;2689;50.954;7.116;2023-02-28T02:55:39;0.60;99.00
5334;DHT22;2689;50.954;7.116;2023-02-28T02:58:12;0.60;98.80
5334;DHT22;2689;50.954;7.116;2023-02-28T03:00:43;0.60;98.40
5334;DHT22;2689;50.954;7.116;2023-02-28T03:03:14;0.70;98.00
5334;DHT22;2689;50.954;7.116;2023-02-28T03:05:53;0.70;97.60
5334;DHT22;2689;50.954;7.116;2023-02-28T03:08:20;0.70;97.30
5334;DHT22;2689;50.954;7.116;2023-02-28T03:10:52;0.70;96.70
5334;DHT22;2689;50.954;7.116;2023-02-28T03:19:51;0.70;95.60
5334;DHT22;2689;50.954;7.116;2023-02-28T03:22:49;0.70;95.20
5334;DHT22;2689;50.954;7.116;2023-02-28T03:25:36;0.80;94.70
5334;DHT22;2689;50.954;7.116;2023-02-28T03:28:08;0.80;94.70
5334;DHT22;2689;50.954;7.116;2023-02-28T03:30:48;0.80;94.30
5334;DHT22;2689;50.954;7.116;2023-02-28T03:33:23;0.70;93.80
5334;DHT22;2689;50.954;7.116;2023-02-28T03:36:07;0.80;93.70
5334;DHT22;2689;50.954;7.116;2023-02-28T03:39:09;0.80;93.30
5334;DHT22;2689;50.954;7.116;2023-02-28T03:41:51;0.80;93.20
5334;DHT22;2689;50.954;7.116;2023-02-28T03:44:31;0.80;93.00
5334;DHT22;2689;50.954;7.116;2023-02-28T03:47:36;0.80;92.80
5334;DHT22;2689;50.954;7.116;2023-02-28T03:50:25;0.80;93.10
5334;DHT22;2689;50.954;7.116;2023-02-28T03:56:22;0.70;92.60
5334;DHT22;2689;50.954;7.116;2023-02-28T03:59:10;0.70;92.70
5334;DHT22;2689;50.954;7.116;2023-02-28T04:01:56;0.70;92.70
5334;DHT22;2689;50.954;7.116;2023-02-28T04:04:32;0.70;93.10
5334;DHT22;2689;50.954;7.116;2023-02-28T04:07:10;0.70;93.20
5334;DHT22;2689;50.954;7.116;2023-02-28T04:09:37;0.70;93.40
5334;DHT22;2689;50.954;7.116;2023-02-28T04:12:09;0.70;93.50
5334;DHT22;2689;50.954;7.116;2023-02-28T04:14:44;0.70;93.70
5334;DHT22;2689;50.954;7.116;2023-02-28T04:17:11;0.70;94.10
5334;DHT22;2689;50.954;7.116;2023-02-28T04:19:41;0.70;94.30
5334;DHT22;2689;50.954;7.116;2023-02-28T04:22:09;0.60;94.50
5334;DHT22;2689;50.954;7.116;2023-02-28T04:25:02;0.70;94.60
5334;DHT22;2689;50.954;7.116;2023-02-28T04:27:52;0.70;94.80
5334;DHT22;2689;50.954;7.116;2023-02-28T04:30:27;0.70;95.00
5334;DHT22;2689;50.954;7.116;2023-02-28T04:33:03;0.60;95.40
5334;DHT22;2689;50.954;7.116;2023-02-28T04:36:13;0.60;95.50
5334;DHT22;2689;50.954;7.116;2023-02-28T04:38:52;0.60;95.40
5334;DHT22;2689;50.954;7.116;2023-02-28T04:41:32;0.60;95.60
5334;DHT22;2689;50.954;7.116;2023-02-28T04:44:22;0.60;95.60
5334;DHT22;2689;50.954;7.116;2023-02-28T04:51:05;0.50;96.00
5334;DHT22;2689;50.954;7.116;2023-02-28T04:54:07;0.50;96.10
5334;DHT22;2689;50.954;7.116;2023-02-28T04:56:48;0.50;96.10
5334;DHT22;2689;50.954;7.116;2023-02-28T04:59:49;0.40;96.00
5334;DHT22;2689;50.954;7.116;2023-02-28T05:02:34;0.40;96.00
5334;DHT22;2689;50.954;7.116;2023-02-28T05:07:47;0.40;96.30
5334;DHT22;2689;50.954;7.116;2023-02-28T05:10:21;0.40;95.90
5334;DHT22;2689;50.954;7.116;2023-02-28T05:15:26;0.30;95.90
5334;DHT22;2689;50.954;7.116;2023-02-28T05:18:04;0.30;95.80
5334;DHT22;2689;50.954;7.116;2023-02-28T05:20:45;0.40;95.60
5334;DHT22;2689;50.954;7.116;2023-02-28T05:23:21;0.40;95.50
5334;DHT22;2689;50.954;7.116;2023-02-28T05:25:56;0.40;95.40
5334;DHT22;2689;50.954;7.116;2023-02-28T05:28:46;0.40;95.20
5334;DHT22;2689;50.954;7.116;2023-02-28T05:31:33;0.40;95.10
5334;DHT22;2689;50.954;7.116;2023-02-28T05:34:38;0.40;95.10
5334;DHT22;2689;50.954;7.116;2023-02-28T05:37:51;0.40;95.00
5334;DHT22;2689;50.954;7.116;2023-02-28T05:44:02;0.40;95.20
5334;DHT22;2689;50.954;7.116;2023-02-28T05:46:34;0.40;95.10
5334;DHT22;2689;50.954;7.116;2023-02-28T05:49:04;0.40;95.00
5334;DHT22;2689;50.954;7.116;2023-02-28T05:51:33;0.40;95.10
5334;DHT22;2689;50.954;7.116;2023-02-28T05:57:33;0.40;95.00
5334;DHT22;2689;50.954;7.116;2023-02-28T06:00:06;0.40;95.10
5334;DHT22;2689;50.954;7.116;2023-02-28T06:02:53;0.40;95.00
5334;DHT22;2689;50.954;7.116;2023-02-28T06:09:33;0.30;95.20
5334;DHT22;2689;50.954;7.116;2023-02-28T06:12:18;0.40;95.30
5334;DHT22;2689;50.954;7.116;2023-02-28T06:15:15;0.30;95.40
5334;DHT22;2689;50.954;7.116;2023-02-28T06:17:50;0.30;95.40
5334;DHT22;2689;50.954;7.116;2023-02-28T06:20:37;0.20;95.50
5334;DHT22;2689;50.954;7.116;2023-02-28T06:23:23;0.20;95.60
5334;DHT22;2689;50.954;7.116;2023-02-28T06:26:04;0.20;95.90
5334;DHT22;2689;50.954;7.116;2023-02-28T06:28:34;0.20;95.80
5334;DHT22;2689;50.954;7.116;2023-02-28T06:31:06;0.20;95.80
5334;DHT22;2689;50.954;7.116;2023-02-28T06:33:35;0.30;95.80
5334;DHT22;2689;50.954;7.116;2023-02-28T06:36:02;0.30;95.80
5334;DHT22;2689;50.954;7.116;2023-02-28T06:38:29;0.30;95.70
5334;DHT22;2689;50.954;7.116;2023-02-28T06:40:58;0.20;95.60
5334;DHT22;2689;50.954;7.116;2023-02-28T06:43:27;0.30;95.70
5334;DHT22;2689;50.954;7.116;2023-02-28T06:45:55;0.30;95.60
5334;DHT22;2689;50.954;7.116;2023-02-28T06:48:22;0.30;95.40
5334;DHT22;2689;50.954;7.116;2023-02-28T06:50:50;0.30;95.30
5334;DHT22;2689;50.954;7.116;2023-02-28T06:53:20;0.30;95.20
5334;DHT22;2689;50.954;7.116;2023-02-28T06:55:47;0.30;95.00
5334;DHT22;2689;50.954;7.116;2023-02-28T06:58:15;0.30;94.90
5334;DHT22;2689;50.954;7.116;2023-02-28T07:00:45;0.40;94.50
5334;DHT22;2689;50.954;7.116;2023-02-28T07:03:14;0.40;94.50
5334;DHT22;2689;50.954;7.116;2023-02-28T07:05:43;0.40;94.10
5334;DHT22;2689;50.954;7.116;2023-02-28T07:08:11;0.40;93.90
5334;DHT22;2689;50.954;7.116;2023-02-28T07:10:39;0.40;93.60
5334;DHT22;2689;50.954;7.116;2023-02-28T07:13:11;0.50;93.50
5334;DHT22;2689;50.954;7.116;2023-02-28T07:16:34;0.50;93.30
5334;DHT22;2689;50.954;7.116;2023-02-28T07:19:11;0.50;92.70
5334;DHT22;2689;50.954;7.116;2023-02-28T07:21:37;0.60;92.60
5334;DHT22;2689;50.954;7.116;2023-02-28T07:24:06;0.60;92.20
5334;DHT22;2689;50.954;7.116;2023-02-28T07:26:33;0.70;92.10
5334;DHT22;2689;50.954;7.116;2023-02-28T07:29:00;0.70;92.00
5334;DHT22;2689;50.954;7.116;2023-02-28T07:31:27;0.70;91.70
5334;DHT22;2689;50.954;7.116;2023-02-28T07:33:59;0.80;91.60
5334;DHT22;2689;50.954;7.116;2023-02-28T07:36:29;0.80;91.30
5334;DHT22;2689;50.954;7.116;2023-02-28T07:38:58;0.90;91.00
5334;DHT22;2689;50.954;7.116;2023-02-28T07:41:26;1.00;90.90
5334;DHT22;2689;50.954;7.116;2023-02-28T07:43:55;1.00;90.60
5334;DHT22;2689;50.954;7.116;2023-02-28T07:46:23;1.10;90.30
5334;DHT22;2689;50.954;7.116;2023-02-28T07:48:50;1.30;90.20
5334;DHT22;2689;50.954;7.116;2023-02-28T07:51:17;1.30;89.10
5334;DHT22;2689;50.954;7.116;2023-02-28T07:53:44;1.40;87.90
5334;DHT22;2689;50.954;7.116;2023-02-28T07:56:16;1.60;87.20
5334;DHT22;2689;50.954;7.116;2023-02-28T08:01:31;3.10;84.70
5334;DHT22;2689;50.954;7.116;2023-02-28T08:03:58;4.80;82.10
5334;DHT22;2689;50.954;7.116;2023-02-28T08:06:26;6.80;75.50
5334;DHT22;2689;50.954;7.116;2023-02-28T08:12:06;9.60;57.40
5334;DHT22;2689;50.954;7.116;2023-02-28T08:14:36;11.30;52.20
5334;DHT22;2689;50.954;7.116;2023-02-28T08:17:05;12.00;47.70
5334;DHT22;2689;50.954;7.116;2023-02-28T08:19:36;13.10;46.60
5334;DHT22;2689;50.954;7.116;2023-02-28T08:22:06;14.00;43.20
5334;DHT22;2689;50.954;7.116;2023-02-28T08:24:35;14.40;39.70
5334;DHT22;2689;50.954;7.116;2023-02-28T08:27:02;14.50;38.40
5334;DHT22;2689;50.954;7.116;2023-02-28T08:29:33;14.80;37.10
5334;DHT22;2689;50.954;7.116;2023-02-28T08:34:49;15.60;35.60
5334;DHT22;2689;50.954;7.116;2023-02-28T08:37:16;16.00;34.10
5334;DHT22;2689;50.954;7.116;2023-02-28T08:39:43;14.70;32.70
5334;DHT22;2689;50.954;7.116;2023-02-28T08:42:12;14.30;33.70
5334;DHT22;2689;50.954;7.116;2023-02-28T08:44:39;13.80;34.50
5334;DHT22;2689;50.954;7.116;2023-02-28T08:47:07;14.30;35.30
5334;DHT22;2689;50.954;7.116;2023-02-28T08:49:34;15.50;34.90
5334;DHT22;2689;50.954;7.116;2023-02-28T08:52:01;16.60;32.60
5334;DHT22;2689;50.954;7.116;2023-02-28T08:54:27;16.90;30.20
5334;DHT22;2689;50.954;7.116;2023-02-28T08:56:59;17.10;30.90
5334;DHT22;2689;50.954;7.116;2023-02-28T08:59:26;17.80;30.70
5334;DHT22;2689;50.954;7.116;2023-02-28T09:01:53;18.20;28.80
5334;DHT22;2689;50.954;7.116;2023-02-28T09:04:22;18.10;28.60
5334;DHT22;2689;50.954;7.116;2023-02-28T09:06:49;18.30;29.10
5334;DHT22;2689;50.954;7.116;2023-02-28T09:09:16;19.20;28.80
5334;DHT22;2689;50.954;7.116;2023-02-28T09:11:48;19.80;27.60
5334;DHT22;2689;50.954;7.116;2023-02-28T09:14:38;20.20;26.80
5334;DHT22;2689;50.954;7.116;2023-02-28T09:17:18;20.70;26.80
5334;DHT22;2689;50.954;7.116;2023-02-28T09:19:50;21.10;25.20
5334;DHT22;2689;50.954;7.116;2023-02-28T09:22:34;20.30;24.60
5334;DHT22;2689;50.954;7.116;2023-02-28T09:25:21;20.10;25.50
5334;DHT22;2689;50.954;7.116;2023-02-28T09:27:53;19.80;24.60
5334;DHT22;2689;50.954;7.116;2023-02-28T09:30:20;19.60;24.60
5334;DHT22;2689;50.954;7.116;2023-02-28T09:32:47;18.30;24.90
5334;DHT22;2689;50.954;7.116;2023-02-28T09:35:23;18.60;26.20
5334;DHT22;2689;50.954;7.116;2023-02-28T09:37:52;18.70;25.50
5334;DHT22;2689;50.954;7.116;2023-02-28T09:40:25;18.50;25.70
5334;DHT22;2689;50.954;7.116;2023-02-28T09:42:54;19.00;25.80
5334;DHT22;2689;50.954;7.116;2023-02-28T09:45:28;18.90;25.90
5334;DHT22;2689;50.954;7.116;2023-02-28T09:48:06;18.90;25.30
5334;DHT22;2689;50.954;7.116;2023-02-28T09:50:43;19.20;25.30
5334;DHT22;2689;50.954;7.116;2023-02-28T09:53:18;19.50;25.20
5334;DHT22;2689;50.954;7.116;2023-02-28T09:55:49;19.60;25.30
5334;DHT22;2689;50.954;7.116;2023-02-28T09:58:30;19.60;25.20
5334;DHT22;2689;50.954;7.116;2023-02-28T10:01:02;20.30;25.50
5334;DHT22;2689;50.954;7.116;2023-02-28T10:07:20;20.30;24.50
5334;DHT22;2689;50.954;7.116;2023-02-28T10:09:53;20.70;24.50
5334;DHT22;2689;50.954;7.116;2023-02-28T10:12:24;19.10;24.20
5334;DHT22;2689;50.954;7.116;2023-02-28T10:14:54;17.90;25.20
5334;DHT22;2689;50.954;7.116;2023-02-28T10:17:39;18.20;26.40
5334;DHT22;2689;50.954;7.116;2023-02-28T10:20:12;18.70;26.50
5334;DHT22;2689;50.954;7.116;2023-02-28T10:23:08;19.30;25.30
5334;DHT22;2689;50.954;7.116;2023-02-28T10:25:37;19.10;25.40
5334;DHT22;2689;50.954;7.116;2023-02-28T10:28:17;18.80;24.90
5334;DHT22;2689;50.954;7.116;2023-02-28T10:30:53;18.10;25.20
5334;DHT22;2689;50.954;7.116;2023-02-28T10:33:49;17.60;26.10
5334;DHT22;2689;50.954;7.116;2023-02-28T10:36:25;18.10;26.20
5334;DHT22;2689;50.954;7.116;2023-02-28T10:39:00;18.30;25.80
5334;DHT22;2689;50.954;7.116;2023-02-28T10:41:29;18.80;26.20
5334;DHT22;2689;50.954;7.116;2023-02-28T10:44:16;19.00;25.40
5334;DHT22;2689;50.954;7.116;2023-02-28T10:46:45;18.90;25.30
5334;DHT22;2689;50.954;7.116;2023-02-28T10:52:39;19.30;26.00
5334;DHT22;2689;50.954;7.116;2023-02-28T10:55:23;19.30;24.80
5334;DHT22;2689;50.954;7.116;2023-02-28T10:57:53;18.70;24.80
5334;DHT22;2689;50.954;7.116;2023-02-28T11:00:25;19.10;25.30
5334;DHT22;2689;50.954;7.116;2023-02-28T11:02:57;18.70;25.10
5334;DHT22;2689;50.954;7.116;2023-02-28T11:05:31;18.70;25.20
5334;DHT22;2689;50.954;7.116;2023-02-28T11:08:46;18.70;25.70
5334;DHT22;2689;50.954;7.116;2023-02-28T11:11:16;19.50;25.90
5334;DHT22;2689;50.954;7.116;2023-02-28T11:13:45;18.80;24.60
5334;DHT22;2689;50.954;7.116;2023-02-28T11:16:35;18.20;24.90
5334;DHT22;2689;50.954;7.116;2023-02-28T11:19:14;18.10;25.80
5334;DHT22;2689;50.954;7.116;2023-02-28T11:22:04;18.20;25.30
5334;DHT22;2689;50.954;7.116;2023-02-28T11:24:45;19.00;25.10
5334;DHT22;2689;50.954;7.116;2023-02-28T11:31:01;20.40;25.30
5334;DHT22;2689;50.954;7.116;2023-02-28T11:33:29;21.60;23.80
5334;DHT22;2689;50.954;7.116;2023-02-28T11:36:19;21.20;23.10
5334;DHT22;2689;50.954;7.116;2023-02-28T11:39:39;21.00;23.40
5334;DHT22;2689;50.954;7.116;2023-02-28T11:48:16;21.10;23.20
5334;DHT22;2689;50.954;7.116;2023-02-28T11:57:20;19.00;25.60
5334;DHT22;2689;50.954;7.116;2023-02-28T11:59:59;19.20;25.40
5334;DHT22;2689;50.954;7.116;2023-02-28T12:02:29;18.70;25.00
5334;DHT22;2689;50.954;7.116;2023-02-28T12:05:23;18.50;25.60
5334;DHT22;2689;50.954;7.116;2023-02-28T12:08:06;18.50;25.70
5334;DHT22;2689;50.954;7.116;2023-02-28T12:11:02;17.90;25.10
5334;DHT22;2689;50.954;7.116;2023-02-28T12:17:13;17.90;26.20
5334;DHT22;2689;50.954;7.116;2023-02-28T12:20:02;18.30;26.50
5334;DHT22;2689;50.954;7.116;2023-02-28T12:23:00;18.50;26.10
5334;DHT22;2689;50.954;7.116;2023-02-28T12:26:02;18.60;25.80
5334;DHT22;2689;50.954;7.116;2023-02-28T12:28:35;19.00;26.00
5334;DHT22;2689;50.954;7.116;2023-02-28T12:34:24;17.40;26.10
5334;DHT22;2689;50.954;7.116;2023-02-28T12:36:54;17.90;26.90
5334;DHT22;2689;50.954;7.116;2023-02-28T12:39:29;17.80;26.70
5334;DHT22;2689;50.954;7.116;2023-02-28T12:42:03;18.10;27.20
5334;DHT22;2689;50.954;7.116;2023-02-28T12:44:44;17.90;26.20
5334;DHT22;2689;50.954;7.116;2023-02-28T12:47:15;18.00;26.90
5334;DHT22;2689;50.954;7.116;2023-02-28T12:49:46;18.00;26.90
5334;DHT22;2689;50.954;7.116;2023-02-28T12:52:24;17.70;26.70
5334;DHT22;2689;50.954;7.116;2023-02-28T12:54:58;17.20;26.60
5334;DHT22;2689;50.954;7.116;2023-02-28T12:57:33;17.20;27.20
5334;DHT22;2689;50.954;7.116;2023-02-28T13:00:10;16.40;27.20
5334;DHT22;2689;50.954;7.116;2023-02-28T13:03:06;16.10;27.80
5334;DHT22;2689;50.954;7.116;2023-02-28T13:05:50;15.30;27.90
5334;DHT22;2689;50.954;7.116;2023-02-28T13:09:15;14.70;29.30
5334;DHT22;2689;50.954;7.116;2023-02-28T13:11:58;14.30;29.40
5334;DHT22;2689;50.954;7.116;2023-02-28T13:14:28;14.50;30.00
5334;DHT22;2689;50.954;7.116;2023-02-28T13:17:04;14.10;29.70
5334;DHT22;2689;50.954;7.116;2023-02-28T13:19:39;13.60;30.00
5334;DHT22;2689;50.954;7.116;2023-02-28T13:22:17;12.90;30.30
5334;DHT22;2689;50.954;7.116;2023-02-28T13:24:49;12.60;30.50
5334;DHT22;2689;50.954;7.116;2023-02-28T13:33:25;12.90;31.30
5334;DHT22;2689;50.954;7.116;2023-02-28T13:38:50;13.60;30.50
5334;DHT22;2689;50.954;7.116;2023-02-28T13:41:44;13.80;30.50
5334;DHT22;2689;50.954;7.116;2023-02-28T13:44:15;14.10;30.50
5334;DHT22;2689;50.954;7.116;2023-02-28T13:47:19;14.40;30.40
5334;DHT22;2689;50.954;7.116;2023-02-28T13:49:48;15.00;30.00
5334;DHT22;2689;50.954;7.116;2023-02-28T13:55:37;15.80;30.20
5334;DHT22;2689;50.954;7.116;2023-02-28T13:58:48;16.70;28.90
5334;DHT22;2689;50.954;7.116;2023-02-28T14:05:22;18.10;28.70
5334;DHT22;2689;50.954;7.116;2023-02-28T14:07:53;18.90;28.10
5334;DHT22;2689;50.954;7.116;2023-02-28T14:10:31;18.90;27.40
5334;DHT22;2689;50.954;7.116;2023-02-28T14:24:00;20.20;27.00
5334;DHT22;2689;50.954;7.116;2023-02-28T14:33:40;19.60;27.60
5334;DHT22;2689;50.954;7.116;2023-02-28T14:36:20;19.90;27.40
5334;DHT22;2689;50.954;7.116;2023-02-28T14:38:53;18.90;26.50
5334;DHT22;2689;50.954;7.116;2023-02-28T14:41:23;18.40;27.00
5334;DHT22;2689;50.954;7.116;2023-02-28T14:43:55;17.60;27.30
5334;DHT22;2689;50.954;7.116;2023-02-28T14:46:25;17.70;28.40
5334;DHT22;2689;50.954;7.116;2023-02-28T14:49:01;17.70;28.10
5334;DHT22;2689;50.954;7.116;2023-02-28T14:51:47;17.20;27.90
5334;DHT22;2689;50.954;7.116;2023-02-28T14:54:35;16.70;28.10
5334;DHT22;2689;50.954;7.116;2023-02-28T14:57:21;16.10;29.20
5334;DHT22;2689;50.954;7.116;2023-02-28T14:59:57;15.60;29.20
5334;DHT22;2689;50.954;7.116;2023-02-28T15:02:29;14.90;29.50
5334;DHT22;2689;50.954;7.116;2023-02-28T15:05:35;15.20;30.70
5334;DHT22;2689;50.954;7.116;2023-02-28T15:08:13;15.20;30.00
5334;DHT22;2689;50.954;7.116;2023-02-28T15:10:45;14.80;30.10
5334;DHT22;2689;50.954;7.116;2023-02-28T15:13:38;14.50;30.00
5334;DHT22;2689;50.954;7.116;2023-02-28T15:16:13;14.50;30.30
5334;DHT22;2689;50.954;7.116;2023-02-28T15:19:06;14.60;30.10
5334;DHT22;2689;50.954;7.116;2023-02-28T15:25:23;14.10;30.60
5334;DHT22;2689;50.954;7.116;2023-02-28T15:28:01;13.70;30.80
5334;DHT22;2689;50.954;7.116;2023-02-28T15:31:18;13.30;30.90
5334;DHT22;2689;50.954;7.116;2023-02-28T15:36:36;12.00;32.10
5334;DHT22;2689;50.954;7.116;2023-02-28T15:39:19;11.40;33.10
5334;DHT22;2689;50.954;7.116;2023-02-28T15:41:47;11.10;34.20
5334;DHT22;2689;50.954;7.116;2023-02-28T15:44:33;11.10;34.90
5334;DHT22;2689;50.954;7.116;2023-02-28T15:47:05;10.90;35.30
5334;DHT22;2689;50.954;7.116;2023-02-28T15:49:57;10.70;35.50
5334;DHT22;2689;50.954;7.116;2023-02-28T15:52:38;10.50;36.00
5334;DHT22;2689;50.954;7.116;2023-02-28T15:55:09;10.30;36.60
5334;DHT22;2689;50.954;7.116;2023-02-28T15:57:39;10.00;36.70
5334;DHT22;2689;50.954;7.116;2023-02-28T16:00:43;9.80;38.30
5334;DHT22;2689;50.954;7.116;2023-02-28T16:03:27;9.70;39.10
5334;DHT22;2689;50.954;7.116;2023-02-28T16:06:37;9.70;39.70
5334;DHT22;2689;50.954;7.116;2023-02-28T16:09:06;9.40;39.00
5334;DHT22;2689;50.954;7.116;2023-02-28T16:11:38;9.10;39.40
5334;DHT22;2689;50.954;7.116;2023-02-28T16:14:15;8.80;39.80
5334;DHT22;2689;50.954;7.116;2023-02-28T16:16:48;8.50;40.40
5334;DHT22;2689;50.954;7.116;2023-02-28T16:19:15;8.40;40.90
5334;DHT22;2689;50.954;7.116;2023-02-28T16:21:44;8.10;41.30
5334;DHT22;2689;50.954;7.116;2023-02-28T16:24:11;8.00;41.70
5334;DHT22;2689;50.954;7.116;2023-02-28T16:26:40;7.90;42.20
5334;DHT22;2689;50.954;7.116;2023-02-28T16:29:09;7.90;42.50
5334;DHT22;2689;50.954;7.116;2023-02-28T16:31:39;7.90;42.70
5334;DHT22;2689;50.954;7.116;2023-02-28T16:34:07;7.80;43.20
5334;DHT22;2689;50.954;7.116;2023-02-28T16:36:35;7.80;43.70
5334;DHT22;2689;50.954;7.116;2023-02-28T16:39:02;7.70;43.80
5334;DHT22;2689;50.954;7.116;2023-02-28T16:41:29;7.50;43.80
5334;DHT22;2689;50.954;7.116;2023-02-28T16:43:57;7.40;44.20
5334;DHT22;2689;50.954;7.116;2023-02-28T16:46:31;7.30;44.30
5334;DHT22;2689;50.954;7.116;2023-02-28T16:48:59;7.30;44.60
5334;DHT22;2689;50.954;7.116;2023-02-28T16:51:28;7.30;44.70
5334;DHT22;2689;50.954;7.116;2023-02-28T16:53:54;7.20;44.90
5334;DHT22;2689;50.954;7.116;2023-02-28T16:56:25;7.00;45.00
5334;DHT22;2689;50.954;7.116;2023-02-28T16:58:55;7.00;45.30
5334;DHT22;2689;50.954;7.116;2023-02-28T17:01:24;7.00;45.50
5334;DHT22;2689;50.954;7.116;2023-02-28T17:03:55;6.80;45.50
5334;DHT22;2689;50.954;7.116;2023-02-28T17:06:24;6.80;45.80
5334;DHT22;2689;50.954;7.116;2023-02-28T17:09:05;6.70;46.00
5334;DHT22;2689;50.954;7.116;2023-02-28T17:11:34;6.60;46.30
5334;DHT22;2689;50.954;7.116;2023-02-28T17:14:01;6.60;46.70
5334;DHT22;2689;50.954;7.116;2023-02-28T17:16:30;6.50;47.00
5334;DHT22;2689;50.954;7.116;2023-02-28T17:18:59;6.50;47.30
5334;DHT22;2689;50.954;7.116;2023-02-28T17:21:27;6.40;47.70
5334;DHT22;2689;50.954;7.116;2023-02-28T17:23:53;6.40;47.90
5334;DHT22;2689;50.954;7.116;2023-02-28T17:26:23;6.30;48.80
5334;DHT22;2689;50.954;7.116;2023-02-28T17:29:23;6.20;48.60
5334;DHT22;2689;50.954;7.116;2023-02-28T19:03:48;4.10;58.80
5334;DHT22;2689;50.954;7.116;2023-02-28T19:06:54;4.00;58.90
5334;DHT22;2689;50.954;7.116;2023-02-28T19:09:30;4.00;59.30
5334;DHT22;2689;50.954;7.116;2023-02-28T19:12:34;3.90;59.60
5334;DHT22;2689;50.954;7.116;2023-02-28T19:18:46;3.80;60.40
5334;DHT22;2689;50.954;7.116;2023-02-28T19:22:28;3.80;61.40
5334;DHT22;2689;50.954;7.116;2023-02-28T19:26:10;3.70;62.10
5334;DHT22;2689;50.954;7.116;2023-02-28T19:28:32;3.60;62.70
5334;DHT22;2689;50.954;7.116;2023-02-28T19:31:01;3.60;63.40
5334;DHT22;2689;50.954;7.116;2023-02-28T19:33:28;3.50;64.00
5334;DHT22;2689;50.954;7.116;2023-02-28T19:35:58;3.50;64.70
5334;DHT22;2689;50.954;7.116;2023-02-28T19:38:25;3.40;65.10
5334;DHT22;2689;50.954;7.116;2023-02-28T19:40:59;3.40;65.50
5334;DHT22;2689;50.954;7.116;2023-02-28T19:43:26;3.30;65.90
5334;DHT22;2689;50.954;7.116;2023-02-28T19:45:53;3.30;66.60
5334;DHT22;2689;50.954;7.116;2023-02-28T19:48:19;3.20;67.00
5334;DHT22;2689;50.954;7.116;2023-02-28T19:50:49;3.20;67.50
5334;DHT22;2689;50.954;7.116;2023-02-28T19:53:17;3.10;68.00
5334;DHT22;2689;50.954;7.116;2023-02-28T19:55:45;3.00;68.80
5334;DHT22;2689;50.954;7.116;2023-02-28T19:58:13;3.00;69.70
5334;DHT22;2689;50.954;7.116;2023-02-28T20:00:40;2.90;70.30
5334;DHT22;2689;50.954;7.116;2023-02-28T20:03:06;2.90;71.10
5334;DHT22;2689;50.954;7.116;2023-02-28T20:05:33;2.80;71.90
5334;DHT22;2689;50.954;7.116;2023-02-28T20:08:01;2.80;73.00
5334;DHT22;2689;50.954;7.116;2023-02-28T20:10:29;2.80;74.10
5334;DHT22;2689;50.954;7.116;2023-02-28T20:12:58;2.70;75.00
5334;DHT22;2689;50.954;7.116;2023-02-28T20:15:25;2.70;75.60
5334;DHT22;2689;50.954;7.116;2023-02-28T20:17:53;2.60;76.20
5334;DHT22;2689;50.954;7.116;2023-02-28T20:20:21;2.50;77.00
5334;DHT22;2689;50.954;7.116;2023-02-28T20:22:48;2.50;77.60
5334;DHT22;2689;50.954;7.116;2023-02-28T20:25:15;2.50;78.30
5334;DHT22;2689;50.954;7.116;2023-02-28T20:27:44;2.50;78.40
5334;DHT22;2689;50.954;7.116;2023-02-28T20:30:11;2.40;79.10
5334;DHT22;2689;50.954;7.116;2023-02-28T20:32:38;2.40;79.60
5334;DHT22;2689;50.954;7.116;2023-02-28T20:35:06;2.30;80.50
5334;DHT22;2689;50.954;7.116;2023-02-28T20:37:36;2.30;80.60
5334;DHT22;2689;50.954;7.116;2023-02-28T20:40:03;2.20;81.20
5334;DHT22;2689;50.954;7.116;2023-02-28T20:42:30;2.20;81.80
5334;DHT22;2689;50.954;7.116;2023-02-28T20:44:59;2.20;82.70
5334;DHT22;2689;50.954;7.116;2023-02-28T20:47:25;2.20;83.80
5334;DHT22;2689;50.954;7.116;2023-02-28T20:49:52;2.10;84.50
5334;DHT22;2689;50.954;7.116;2023-02-28T20:52:19;2.10;85.10
5334;DHT22;2689;50.954;7.116;2023-02-28T20:54:46;2.10;86.00
5334;DHT22;2689;50.954;7.116;2023-02-28T20:57:13;2.00;86.30
5334;DHT22;2689;50.954;7.116;2023-02-28T20:59:48;2.00;87.00
5334;DHT22;2689;50.954;7.116;2023-02-28T21:02:18;2.00;87.50
5334;DHT22;2689;50.954;7.116;2023-02-28T21:04:46;1.90;88.60
5334;DHT22;2689;50.954;7.116;2023-02-28T21:07:13;1.90;89.20
5334;DHT22;2689;50.954;7.116;2023-02-28T21:09:40;1.90;89.20
5334;DHT22;2689;50.954;7.116;2023-02-28T21:12:07;1.90;89.40
5334;DHT22;2689;50.954;7.116;2023-02-28T21:14:34;1.80;89.50
5334;DHT22;2689;50.954;7.116;2023-02-28T21:17:00;1.80;90.00
5334;DHT22;2689;50.954;7.116;2023-02-28T21:19:29;1.80;90.30
5334;DHT22;2689;50.954;7.116;2023-02-28T21:21:57;1.70;90.20